createdAt,value
2018-01-14T00:00:12.681Z,4.60
2018-01-14T00:02:40.247Z,4.60
2018-01-14T00:05:08.974Z,4.60
2018-01-14T00:07:36.614Z,4.60
2018-01-14T00:10:04.117Z,4.60
2018-01-14T00:12:31.633Z,4.60
2018-01-14T00:14:59.129Z,4.60
2018-01-14T00:17:26.765Z,4.60
2018-01-14T00:19:54.297Z,4.60
2018-01-14T00:22:22.577Z,4.60
2018-01-14T00:24:50.841Z,4.60
2018-01-14T00:27:18.364Z,4.60
2018-01-14T00:29:45.874Z,4.60
2018-01-14T00:32:14.154Z,4.60
2018-01-14T00:34:42.477Z,4.60
2018-01-14T00:37:09.976Z,4.60
2018-01-14T00:39:38.246Z,4.60
2018-01-14T00:42:05.767Z,4.60
2018-01-14T00:44:33.266Z,4.60
2018-01-14T00:47:00.789Z,4.60
2018-01-14T00:49:28.689Z,4.50
2018-01-14T00:51:56.285Z,4.60
2018-01-14T00:54:23.793Z,4.50
2018-01-14T00:56:51.314Z,4.50
2018-01-14T00:59:18.813Z,4.50
2018-01-14T01:01:46.320Z,4.50
2018-01-14T01:04:13.822Z,4.50
2018-01-14T01:06:41.329Z,4.50
2018-01-14T01:09:09.590Z,4.50
2018-01-14T01:11:37.874Z,4.50
2018-01-14T01:14:05.369Z,4.40
2018-01-14T01:16:32.890Z,4.50
2018-01-14T01:19:01.158Z,4.40
2018-01-14T01:21:28.669Z,4.40
2018-01-14T01:23:56.181Z,4.40
2018-01-14T01:26:24.465Z,4.40
2018-01-14T01:28:52.735Z,4.40
2018-01-14T01:31:21.021Z,4.40
2018-01-14T01:33:49.326Z,4.40
2018-01-14T01:36:16.837Z,4.40
2018-01-14T01:38:44.346Z,4.40
2018-01-14T01:41:11.842Z,4.40
2018-01-14T01:43:39.353Z,4.40
2018-01-14T01:46:06.849Z,4.40
2018-01-14T01:48:34.370Z,4.40
2018-01-14T01:51:01.873Z,4.40
2018-01-14T01:53:29.396Z,4.40
2018-01-14T01:55:56.893Z,4.40
2018-01-14T01:58:24.412Z,4.40
2018-01-14T02:00:51.911Z,4.40
2018-01-14T02:03:19.421Z,4.40
2018-01-14T02:05:46.922Z,4.40
2018-01-14T02:08:14.447Z,4.30
2018-01-14T02:10:41.945Z,4.40
2018-01-14T02:13:09.494Z,4.30
2018-01-14T02:15:36.970Z,4.30
2018-01-14T02:18:04.486Z,4.30
2018-01-14T02:20:31.985Z,4.30
2018-01-14T02:22:59.497Z,4.30
2018-01-14T02:25:26.995Z,4.30
2018-01-14T02:27:54.518Z,4.30
2018-01-14T02:30:22.011Z,4.30
2018-01-14T02:32:49.521Z,4.30
2018-01-14T02:35:17.029Z,4.30
2018-01-14T02:37:44.542Z,4.30
2018-01-14T02:40:12.033Z,4.30
2018-01-14T02:42:39.545Z,4.30
2018-01-14T02:45:07.810Z,4.30
2018-01-14T02:47:36.098Z,4.30
2018-01-14T02:50:04.357Z,4.30
2018-01-14T02:52:31.878Z,4.30
2018-01-14T02:54:59.385Z,4.30
2018-01-14T02:57:27.665Z,4.30
2018-01-14T02:59:55.942Z,4.30
2018-01-14T03:02:23.477Z,4.20
2018-01-14T03:04:50.969Z,4.30
2018-01-14T03:07:19.249Z,4.30
2018-01-14T03:09:47.514Z,4.30
2018-01-14T03:12:15.792Z,4.30
2018-01-14T03:14:44.055Z,4.30
2018-01-14T03:17:11.609Z,4.20
2018-01-14T03:19:39.097Z,4.30
2018-01-14T03:22:07.374Z,4.30
2018-01-14T03:24:35.637Z,4.30
2018-01-14T03:27:03.935Z,4.30
2018-01-14T03:29:31.438Z,4.30
2018-01-14T03:31:58.953Z,4.30
2018-01-14T03:34:26.448Z,4.30
2018-01-14T03:36:53.956Z,4.30
2018-01-14T03:39:22.233Z,4.30
2018-01-14T03:41:50.494Z,4.30
2018-01-14T03:44:18.003Z,4.30
2018-01-14T03:46:45.498Z,4.30
2018-01-14T03:49:13.009Z,4.30
2018-01-14T03:51:40.504Z,4.30
2018-01-14T03:54:08.017Z,4.30
2018-01-14T03:56:35.513Z,4.30
2018-01-14T03:59:03.029Z,4.30
2018-01-14T04:01:30.525Z,4.30
2018-01-14T04:03:58.029Z,4.30
2018-01-14T04:06:26.289Z,4.30
2018-01-14T04:08:53.806Z,4.30
2018-01-14T04:11:21.301Z,4.30
2018-01-14T04:13:48.810Z,4.30
2018-01-14T04:16:16.305Z,4.30
2018-01-14T04:18:43.834Z,4.20
2018-01-14T04:21:11.333Z,4.20
2018-01-14T04:23:38.837Z,4.30
2018-01-14T04:26:06.349Z,4.30
2018-01-14T04:28:33.861Z,4.30
2018-01-14T04:31:01.362Z,4.30
2018-01-14T04:33:28.878Z,4.30
2018-01-14T04:35:56.376Z,4.30
2018-01-14T04:38:23.882Z,4.30
2018-01-14T04:40:52.145Z,4.30
2018-01-14T04:43:20.424Z,4.30
2018-01-14T04:45:47.923Z,4.30
2018-01-14T04:48:15.461Z,4.30
2018-01-14T04:50:42.958Z,4.30
2018-01-14T04:53:10.469Z,4.30
2018-01-14T04:55:38.734Z,4.30
2018-01-14T04:58:07.017Z,4.30
2018-01-14T05:00:35.277Z,4.30
2018-01-14T05:03:04.063Z,4.30
2018-01-14T05:05:31.561Z,4.30
2018-01-14T05:07:59.069Z,4.30
2018-01-14T05:10:26.567Z,4.30
2018-01-14T05:12:54.841Z,4.30
2018-01-14T05:15:23.110Z,4.30
2018-01-14T05:17:51.389Z,4.30
2018-01-14T05:20:19.653Z,4.30
2018-01-14T05:22:47.161Z,4.30
2018-01-14T05:25:14.648Z,4.30
2018-01-14T05:27:42.157Z,4.30
2018-01-14T05:30:09.668Z,4.30
2018-01-14T05:32:37.158Z,4.30
2018-01-14T05:35:05.435Z,4.30
2018-01-14T05:37:33.698Z,4.30
2018-01-14T05:40:01.211Z,4.30
2018-01-14T05:42:28.705Z,4.30
2018-01-14T05:44:56.220Z,4.30
2018-01-14T05:47:23.721Z,4.30
2018-01-14T05:49:51.228Z,4.30
2018-01-14T05:52:18.725Z,4.30
2018-01-14T05:54:47.232Z,4.30
2018-01-14T05:57:14.737Z,4.30
2018-01-14T05:59:42.245Z,4.30
2018-01-14T06:02:09.750Z,4.30
2018-01-14T06:04:37.261Z,4.30
2018-01-14T06:07:04.750Z,4.30
2018-01-14T06:09:33.024Z,4.30
2018-01-14T06:12:01.285Z,4.30
2018-01-14T06:14:29.570Z,4.30
2018-01-14T06:16:57.829Z,4.30
2018-01-14T06:19:25.358Z,4.30
2018-01-14T06:21:52.852Z,4.30
2018-01-14T06:24:20.365Z,4.30
2018-01-14T06:26:47.861Z,4.30
2018-01-14T06:29:15.371Z,4.30
2018-01-14T06:31:42.868Z,4.30
2018-01-14T06:34:10.378Z,4.30
2018-01-14T06:36:37.872Z,4.30
2018-01-14T06:39:05.377Z,4.30
2018-01-14T06:41:33.634Z,4.30
2018-01-14T06:44:01.150Z,4.30
2018-01-14T06:46:28.692Z,4.30
2018-01-14T06:48:56.242Z,4.40
2018-01-14T06:51:23.742Z,4.40
2018-01-14T06:53:51.253Z,4.40
2018-01-14T06:56:19.519Z,4.40
2018-01-14T06:58:47.796Z,4.40
2018-01-14T07:01:16.062Z,4.40
2018-01-14T07:03:43.577Z,4.40
2018-01-14T07:06:11.077Z,4.40
2018-01-14T07:08:38.598Z,4.40
2018-01-14T07:11:06.093Z,4.40
2018-01-14T07:13:33.605Z,4.40
2018-01-14T07:16:01.103Z,4.40
2018-01-14T07:18:28.618Z,4.40
2018-01-14T07:20:56.117Z,4.40
2018-01-14T07:23:23.631Z,4.40
2018-01-14T07:25:51.148Z,4.40
2018-01-14T07:28:18.649Z,4.40
2018-01-14T07:30:46.197Z,4.40
2018-01-14T07:33:14.458Z,4.40
2018-01-14T07:35:42.739Z,4.40
2018-01-14T07:38:11.005Z,4.40
2018-01-14T07:40:38.521Z,4.40
2018-01-14T07:43:06.017Z,4.40
2018-01-14T07:45:33.529Z,4.40
2018-01-14T07:48:01.025Z,4.40
2018-01-14T07:50:28.541Z,4.50
2018-01-14T07:52:56.042Z,4.50
2018-01-14T07:55:23.562Z,4.50
2018-01-14T07:57:51.057Z,4.50
2018-01-14T08:00:18.569Z,4.50
2018-01-14T08:02:46.074Z,4.50
2018-01-14T08:05:14.604Z,4.50
2018-01-14T08:07:42.100Z,4.50
2018-01-14T08:10:09.609Z,4.50
2018-01-14T08:12:37.869Z,4.50
2018-01-14T08:15:05.385Z,4.40
2018-01-14T08:17:32.881Z,4.50
2018-01-14T08:20:00.390Z,4.50
2018-01-14T08:22:27.885Z,4.50
2018-01-14T08:24:55.397Z,4.50
2018-01-14T08:27:22.894Z,4.50
2018-01-14T08:29:50.405Z,4.50
2018-01-14T08:32:17.910Z,4.50
2018-01-14T08:34:45.422Z,4.50
2018-01-14T08:37:12.921Z,4.50
2018-01-14T08:39:40.429Z,4.50
2018-01-14T08:42:08.686Z,4.50
2018-01-14T08:44:36.203Z,4.50
2018-01-14T08:47:03.697Z,4.50
2018-01-14T08:49:31.209Z,4.50
2018-01-14T08:51:58.743Z,4.50
2018-01-14T08:54:26.254Z,4.50
2018-01-14T08:56:54.522Z,4.60
2018-01-14T08:59:22.031Z,4.60
2018-01-14T09:01:50.315Z,4.60
2018-01-14T09:04:18.610Z,4.60
2018-01-14T09:06:46.106Z,4.60
2018-01-14T09:09:13.604Z,4.60
2018-01-14T09:11:41.890Z,4.60
2018-01-14T09:14:09.393Z,4.60
2018-01-14T09:16:36.897Z,4.60
2018-01-14T09:19:05.613Z,4.60
2018-01-14T09:21:33.125Z,4.60
2018-01-14T09:24:00.632Z,4.60
2018-01-14T09:26:28.144Z,4.60
2018-01-14T09:28:55.650Z,4.60
2018-01-14T09:31:23.157Z,4.60
2018-01-14T09:33:50.654Z,4.70
2018-01-14T09:36:18.166Z,4.70
2018-01-14T09:38:45.665Z,4.60
2018-01-14T09:41:13.949Z,4.60
2018-01-14T09:43:41.453Z,4.60
2018-01-14T09:46:08.969Z,4.70
2018-01-14T09:48:36.469Z,4.70
2018-01-14T09:51:03.986Z,4.70
2018-01-14T09:53:31.484Z,4.70
2018-01-14T09:55:58.997Z,4.70
2018-01-14T09:58:26.497Z,4.70
2018-01-14T10:00:54.014Z,4.70
2018-01-14T10:03:22.268Z,4.70
2018-01-14T10:05:49.785Z,4.60
2018-01-14T10:08:17.282Z,4.60
2018-01-14T10:10:44.800Z,4.70
2018-01-14T10:13:12.293Z,4.60
2018-01-14T10:15:39.817Z,4.60
2018-01-14T10:18:07.326Z,4.60
2018-01-14T10:20:35.606Z,4.60
2018-01-14T10:23:03.870Z,4.70
2018-01-14T10:25:31.384Z,4.60
2018-01-14T10:27:58.877Z,4.70
2018-01-14T10:30:26.393Z,4.70
2018-01-14T10:32:53.893Z,4.70
2018-01-14T10:35:21.418Z,4.70
2018-01-14T10:37:49.680Z,4.70
2018-01-14T10:40:17.193Z,4.60
2018-01-14T10:42:44.693Z,4.70
2018-01-14T10:45:13.049Z,4.70
2018-01-14T10:47:41.331Z,4.70
2018-01-14T10:50:09.609Z,4.70
2018-01-14T10:52:37.902Z,4.70
2018-01-14T10:55:05.397Z,4.70
2018-01-14T10:57:32.919Z,4.70
2018-01-14T11:00:00.418Z,4.70
2018-01-14T11:02:27.929Z,4.70
2018-01-14T11:04:56.194Z,4.70
2018-01-14T11:07:24.482Z,4.70
2018-01-14T11:09:51.981Z,4.70
2018-01-14T11:12:19.510Z,4.70
2018-01-14T11:14:47.038Z,4.70
2018-01-14T11:17:14.557Z,4.80
2018-01-14T11:19:42.051Z,4.80
2018-01-14T11:22:09.577Z,4.70
2018-01-14T11:24:37.081Z,4.70
2018-01-14T11:27:05.361Z,4.70
2018-01-14T11:29:39.210Z,4.70
2018-01-14T11:32:06.734Z,4.70
2018-01-14T11:34:34.993Z,4.70
2018-01-14T11:37:02.510Z,4.70
2018-01-14T11:39:30.020Z,4.70
2018-01-14T11:41:58.298Z,4.80
2018-01-14T11:44:26.555Z,4.80
2018-01-14T11:46:54.078Z,4.70
2018-01-14T11:49:21.578Z,4.70
2018-01-14T11:51:49.105Z,4.80
2018-01-14T11:54:16.606Z,4.80
2018-01-14T11:56:44.938Z,4.80
2018-01-14T11:59:12.442Z,4.80
2018-01-14T12:01:39.962Z,4.80
2018-01-14T12:04:07.498Z,4.80
2018-01-14T12:06:35.026Z,4.80
2018-01-14T12:09:03.301Z,4.90
2018-01-14T12:11:31.584Z,4.90
2018-01-14T12:13:59.844Z,4.90
2018-01-14T12:16:27.358Z,4.80
2018-01-14T12:18:54.856Z,4.90
2018-01-14T12:21:22.574Z,4.90
2018-01-14T12:23:50.078Z,4.90
2018-01-14T12:26:17.573Z,4.90
2018-01-14T12:28:45.132Z,4.90
2018-01-14T12:31:12.662Z,4.90
2018-01-14T12:34:05.931Z,4.90
2018-01-14T12:36:34.251Z,4.90
2018-01-14T12:39:01.782Z,4.90
2018-01-14T12:41:30.085Z,4.90
2018-01-14T12:43:58.346Z,5.00
2018-01-14T12:46:25.845Z,4.90
2018-01-14T12:48:53.369Z,5.00
2018-01-14T12:51:20.910Z,5.00
2018-01-14T12:53:48.453Z,5.00
2018-01-14T12:56:16.001Z,5.00
2018-01-14T12:58:43.553Z,5.00
2018-01-14T13:01:11.052Z,5.00
2018-01-14T13:03:39.326Z,5.00
2018-01-14T13:06:07.602Z,5.10
2018-01-14T13:08:35.887Z,5.10
2018-01-14T13:11:04.162Z,5.00
2018-01-14T13:13:32.453Z,5.00
2018-01-14T13:15:59.955Z,5.00
2018-01-14T13:18:27.520Z,5.00
2018-01-14T13:20:55.149Z,5.00
2018-01-14T13:23:23.499Z,5.00
2018-01-14T13:25:51.762Z,5.00
2018-01-14T13:28:20.847Z,5.00
2018-01-14T13:30:48.310Z,5.00
2018-01-14T13:33:16.605Z,5.00
2018-01-14T13:35:44.955Z,5.00
2018-01-14T13:38:12.495Z,5.00
2018-01-14T13:40:40.009Z,5.00
2018-01-14T13:43:07.513Z,5.00
2018-01-14T13:45:35.080Z,5.00
2018-01-14T13:48:02.577Z,5.00
2018-01-14T13:50:30.869Z,5.00
2018-01-14T13:52:58.370Z,5.00
2018-01-14T13:55:25.935Z,5.10
2018-01-14T13:57:53.434Z,5.10
2018-01-14T14:00:21.727Z,5.10
2018-01-14T14:02:49.256Z,5.10
2018-01-14T14:05:17.537Z,5.20
2018-01-14T14:07:45.800Z,5.20
2018-01-14T14:10:13.347Z,5.10
2018-01-14T14:12:40.878Z,5.10
2018-01-14T14:15:08.537Z,5.20
2018-01-14T14:17:36.141Z,5.20
2018-01-14T14:20:03.694Z,5.20
2018-01-14T14:22:31.206Z,5.20
2018-01-14T14:24:58.720Z,5.20
2018-01-14T14:27:26.233Z,5.20
2018-01-14T14:29:53.757Z,5.20
2018-01-14T14:32:22.009Z,5.20
2018-01-14T14:34:49.606Z,5.10
2018-01-14T14:37:17.915Z,5.20
2018-01-14T14:39:45.425Z,5.10
2018-01-14T14:42:13.712Z,5.20
2018-01-14T14:44:42.103Z,5.10
2018-01-14T14:47:09.694Z,5.10
2018-01-14T14:49:37.245Z,5.20
2018-01-14T14:52:04.819Z,5.20
2018-01-14T14:54:32.317Z,5.20
2018-01-14T14:56:59.865Z,5.10
2018-01-14T14:59:27.380Z,5.20
2018-01-14T15:01:54.913Z,5.20
2018-01-14T15:04:23.198Z,5.10
2018-01-14T15:06:51.493Z,5.10
2018-01-14T15:09:19.035Z,5.10
2018-01-14T15:11:46.577Z,5.10
2018-01-14T15:14:14.901Z,5.10
2018-01-14T15:16:42.478Z,5.10
2018-01-14T15:19:10.053Z,5.10
2018-01-14T15:21:37.640Z,5.10
2018-01-14T15:24:05.237Z,5.10
2018-01-14T15:26:32.795Z,5.10
2018-01-14T15:29:00.337Z,5.10
2018-01-14T15:31:28.003Z,5.10
2018-01-14T15:33:55.533Z,5.00
2018-01-14T15:36:23.848Z,5.00
2018-01-14T15:38:51.598Z,5.00
2018-01-14T15:41:19.153Z,5.00
2018-01-14T15:43:46.665Z,5.00
2018-01-14T15:46:14.232Z,5.00
2018-01-14T15:48:41.793Z,5.00
2018-01-14T15:51:09.336Z,5.00
2018-01-14T15:53:36.880Z,5.00
2018-01-14T15:56:04.430Z,4.90
2018-01-14T15:58:31.935Z,4.90
2018-01-14T16:00:59.707Z,4.90
2018-01-14T16:03:27.250Z,4.90
2018-01-14T16:05:54.771Z,4.90
2018-01-14T16:08:22.270Z,4.90
2018-01-14T16:10:49.818Z,4.90
2018-01-14T16:13:17.362Z,4.80
2018-01-14T16:15:45.658Z,4.90
2018-01-14T16:18:13.216Z,4.80
2018-01-14T16:20:40.740Z,4.90
2018-01-14T16:23:08.292Z,4.90
2018-01-14T16:25:35.958Z,4.80
2018-01-14T16:28:03.501Z,4.80
2018-01-14T16:30:31.827Z,4.80
2018-01-14T16:32:59.383Z,4.80
2018-01-14T16:35:26.939Z,4.80
2018-01-14T16:37:54.703Z,4.80
2018-01-14T16:40:22.217Z,4.80
2018-01-14T16:42:50.542Z,4.80
2018-01-14T16:45:18.099Z,4.80
2018-01-14T16:47:45.598Z,4.80
2018-01-14T16:50:13.335Z,4.80
2018-01-14T16:52:40.850Z,4.80
2018-01-14T16:55:08.356Z,4.80
2018-01-14T16:57:35.880Z,4.80
2018-01-14T17:00:03.424Z,4.70
2018-01-14T17:02:31.710Z,4.70
2018-01-14T17:04:59.206Z,4.70
2018-01-14T17:07:26.717Z,4.70
2018-01-14T17:09:55.217Z,4.70
2018-01-14T17:12:22.730Z,4.70
2018-01-14T17:14:50.479Z,4.70
2018-01-14T17:17:17.993Z,4.70
2018-01-14T17:19:45.501Z,4.70
2018-01-14T17:22:13.261Z,4.70
2018-01-14T17:24:40.760Z,4.70
2018-01-14T17:27:09.040Z,4.70
2018-01-14T17:29:37.353Z,4.70
2018-01-14T17:32:05.115Z,4.60
2018-01-14T17:34:32.615Z,4.70
2018-01-14T17:37:00.187Z,4.70
2018-01-14T17:39:28.495Z,4.70
2018-01-14T17:41:56.077Z,4.60
2018-01-14T17:44:23.582Z,4.70
2018-01-14T17:46:51.148Z,4.70
2018-01-14T17:49:19.413Z,4.70
2018-01-14T17:51:46.930Z,4.60
2018-01-14T17:54:14.658Z,4.70
2018-01-14T17:56:42.942Z,4.70
2018-01-14T17:59:10.682Z,4.60
2018-01-14T18:01:38.258Z,4.70
2018-01-14T18:04:06.830Z,4.60
2018-01-14T18:06:34.587Z,4.60
2018-01-14T18:09:02.319Z,4.60
2018-01-14T18:11:30.075Z,4.60
2018-01-14T18:13:57.639Z,4.60
2018-01-14T18:16:25.217Z,4.60
2018-01-14T18:18:52.792Z,4.60
2018-01-14T18:21:20.547Z,4.60
2018-01-14T18:23:48.067Z,4.60
2018-01-14T18:26:15.815Z,4.60
2018-01-14T18:28:43.572Z,4.60
2018-01-14T18:31:12.103Z,4.60
2018-01-14T18:33:39.609Z,4.60
2018-01-14T18:36:07.944Z,4.60
2018-01-14T18:38:35.679Z,4.60
2018-01-14T18:41:03.216Z,4.60
2018-01-14T18:43:31.478Z,4.60
2018-01-14T18:46:09.622Z,4.60
2018-01-14T18:48:37.184Z,4.60
2018-01-14T18:51:04.756Z,4.60
2018-01-14T18:53:32.335Z,4.60
2018-01-14T18:55:59.921Z,4.60
2018-01-14T18:58:27.546Z,4.60
2018-01-14T19:00:55.119Z,4.60
2018-01-14T19:03:22.700Z,4.60
2018-01-14T19:05:51.006Z,4.60
2018-01-14T19:08:19.340Z,4.50
2018-01-14T19:10:46.846Z,4.50
2018-01-14T19:13:15.197Z,4.50
2018-01-14T19:15:42.692Z,4.50
2018-01-14T19:18:10.256Z,4.50
2018-01-14T19:20:37.812Z,4.50
2018-01-14T19:23:05.342Z,4.50
2018-01-14T19:25:33.664Z,4.50
2018-01-14T19:28:05.750Z,4.50
2018-01-14T19:30:33.324Z,4.50
2018-01-14T19:33:00.892Z,4.50
2018-01-14T19:35:28.432Z,4.50
2018-01-14T19:37:56.008Z,4.50
2018-01-14T19:40:24.324Z,4.50
2018-01-14T19:42:51.990Z,4.50
2018-01-14T19:45:19.541Z,4.50
2018-01-14T19:47:47.876Z,4.50
2018-01-14T19:50:15.429Z,4.50
2018-01-14T19:52:42.997Z,4.50
2018-01-14T19:55:10.559Z,4.50
2018-01-14T19:57:38.111Z,4.50
2018-01-14T20:00:05.690Z,4.50
2018-01-14T20:02:33.243Z,4.50
2018-01-14T20:05:00.810Z,4.50
2018-01-14T20:07:28.369Z,4.50
2018-01-14T20:09:55.943Z,4.50
2018-01-14T20:12:23.549Z,4.50
2018-01-14T20:14:51.157Z,4.40
2018-01-14T20:17:19.506Z,4.40
2018-01-14T20:19:47.105Z,4.40
2018-01-14T20:22:14.692Z,4.40
2018-01-14T20:24:42.257Z,4.40
2018-01-14T20:27:09.837Z,4.40
2018-01-14T20:29:37.390Z,4.40
2018-01-14T20:32:04.889Z,4.40
2018-01-14T20:34:32.456Z,4.40
2018-01-14T20:37:00.022Z,4.40
2018-01-14T20:39:27.580Z,4.40
2018-01-14T20:41:55.082Z,4.40
2018-01-14T20:44:28.464Z,4.40
2018-01-14T20:46:56.021Z,4.40
2018-01-14T20:49:24.301Z,4.40
2018-01-14T20:51:51.854Z,4.40
2018-01-14T20:54:20.187Z,4.40
2018-01-14T20:56:47.742Z,4.40
2018-01-14T20:59:15.301Z,4.40
2018-01-14T21:01:42.852Z,4.40
2018-01-14T21:04:10.418Z,4.30
2018-01-14T21:06:37.914Z,4.30
2018-01-14T21:09:05.477Z,4.40
2018-01-14T21:11:34.701Z,4.40
2018-01-14T21:14:02.277Z,4.30
2018-01-14T21:16:29.831Z,4.40
2018-01-14T21:18:57.395Z,4.40
2018-01-14T21:21:24.945Z,4.40
2018-01-14T21:23:52.461Z,4.30
2018-01-14T21:26:20.014Z,4.30
2018-01-14T21:28:47.580Z,4.30
2018-01-14T21:31:15.120Z,4.30
2018-01-14T21:33:42.696Z,4.30
2018-01-14T21:36:10.252Z,4.30
2018-01-14T21:38:37.777Z,4.30
2018-01-14T21:41:05.310Z,4.30
2018-01-14T21:43:33.631Z,4.30
2018-01-14T21:46:01.187Z,4.30
2018-01-14T21:48:28.751Z,4.30
2018-01-14T21:50:56.315Z,4.30
2018-01-14T21:53:23.955Z,4.30
2018-01-14T21:55:51.498Z,4.30
2018-01-14T21:58:19.832Z,4.20
2018-01-14T22:00:47.376Z,4.20
2018-01-14T22:03:15.752Z,4.20
2018-01-14T22:05:43.297Z,4.20
2018-01-14T22:08:10.813Z,4.20
2018-01-14T22:10:39.125Z,4.20
2018-01-14T22:13:06.679Z,4.10
2018-01-14T22:15:34.220Z,4.20
2018-01-14T22:18:02.532Z,4.10
2018-01-14T22:20:30.107Z,4.10
2018-01-14T22:22:57.669Z,4.10
2018-01-14T22:25:25.194Z,4.10
2018-01-14T22:27:52.690Z,4.10
2018-01-14T22:30:20.205Z,4.10
2018-01-14T22:32:47.751Z,4.10
2018-01-14T22:35:16.084Z,4.10
2018-01-14T22:37:43.639Z,4.00
2018-01-14T22:40:11.196Z,4.00
2018-01-14T22:42:38.693Z,4.00
2018-01-14T22:45:06.209Z,4.00
2018-01-14T22:47:33.751Z,4.00
2018-01-14T22:50:01.307Z,3.90
2018-01-14T22:52:28.801Z,3.90
2018-01-14T22:54:56.356Z,3.90
2018-01-14T22:57:23.896Z,3.80
2018-01-14T22:59:51.457Z,3.80
2018-01-14T23:02:18.995Z,3.80
2018-01-14T23:04:46.509Z,3.80
2018-01-14T23:07:14.008Z,3.80
2018-01-14T23:09:41.530Z,3.70
2018-01-14T23:12:09.025Z,3.70
2018-01-14T23:14:37.301Z,3.70
2018-01-14T23:17:05.606Z,3.60
2018-01-14T23:19:44.910Z,3.60
2018-01-14T23:22:13.182Z,3.60
2018-01-14T23:24:41.474Z,3.60
2018-01-14T23:27:08.972Z,3.50
2018-01-14T23:29:36.506Z,3.50
2018-01-14T23:32:04.010Z,3.50
2018-01-14T23:34:31.517Z,3.50
2018-01-14T23:36:59.013Z,3.50
2018-01-14T23:39:26.526Z,3.50
2018-01-14T23:41:54.021Z,3.50
2018-01-14T23:44:21.529Z,3.50
2018-01-14T23:46:49.789Z,3.50
2018-01-14T23:49:17.306Z,3.40
2018-01-14T23:51:44.797Z,3.50
2018-01-14T23:54:12.310Z,3.40
2018-01-14T23:56:39.805Z,3.40
2018-01-14T23:59:08.090Z,3.40
